Time;durP1;ratioP1;P1;durP2;ratioP2;P2;SDS_P1;SDS_P2;PMS_P1;PMS_P2;Temp;Humidity;BMP_temperature;BMP_pressure;BME280_temperature;BME280_humidity;BME280_pressure;Samples;Min_cycle;Max_cycle;Signal;HPM_P1;HPM_P2
2022/07/01 00:00:09;;;;;;;32.55;25.60;;;;;;;13.37;100.00;101252.53;5033503;28;20033;-60
2022/07/01 00:02:34;;;;;;;35.40;26.38;;;;;;;13.62;100.00;101299.22;5033103;28;20030;-59
2022/07/01 00:04:59;;;;;;;37.65;28.25;;;;;;;13.40;100.00;101265.63;5033006;28;20021;-60
2022/07/01 00:07:25;;;;;;;35.10;27.83;;;;;;;13.59;100.00;101307.28;5032786;28;20041;-61
2022/07/01 00:09:50;;;;;;;37.03;28.35;;;;;;;13.58;100.00;101308.19;5031854;28;20037;-61
2022/07/01 00:12:16;;;;;;;37.95;27.92;;;;;;;13.51;100.00;101307.56;5033045;28;20399;-61
2022/07/01 00:14:41;;;;;;;35.17;27.48;;;;;;;13.54;100.00;101321.53;5033057;28;20038;-60
2022/07/01 00:17:07;;;;;;;39.05;29.33;;;;;;;13.17;100.00;101260.34;5032787;28;20412;-60
2022/07/01 00:19:32;;;;;;;43.25;29.70;;;;;;;13.25;100.00;101260.91;5032619;28;20068;-60
2022/07/01 00:21:58;;;;;;;42.88;30.13;;;;;;;13.46;100.00;101297.16;5032395;28;20040;-60
2022/07/01 00:24:24;;;;;;;40.92;30.40;;;;;;;13.18;100.00;101248.84;5031284;28;20104;-60
2022/07/01 00:26:49;;;;;;;44.03;30.75;;;;;;;13.16;100.00;101258.63;5033040;28;20081;-60
2022/07/01 00:29:14;;;;;;;44.58;29.92;;;;;;;13.20;100.00;101276.09;5032625;28;20048;-61
2022/07/01 00:31:40;;;;;;;46.40;30.83;;;;;;;13.32;100.00;101298.56;5032609;28;20057;-60
2022/07/01 00:34:05;;;;;;;51.10;32.05;;;;;;;13.33;100.00;101322.31;5032469;28;20393;-62
2022/07/01 00:36:31;;;;;;;47.70;31.40;;;;;;;13.38;100.00;101336.22;5031269;28;20400;-61
2022/07/01 00:38:57;;;;;;;50.78;33.10;;;;;;;13.06;100.00;101283.63;5032524;28;20029;-60
2022/07/01 00:41:22;;;;;;;52.10;33.15;;;;;;;13.34;100.00;101334.59;5032524;28;20172;-60
2022/07/01 00:43:48;;;;;;;52.20;33.47;;;;;;;13.27;100.00;101324.31;5032296;28;20513;-61
2022/07/01 00:46:13;;;;;;;51.35;33.22;;;;;;;13.29;100.00;101333.91;5032612;28;20082;-60
2022/07/01 00:48:39;;;;;;;50.47;32.65;;;;;;;12.95;100.00;101289.28;5014424;28;20116;-60
2022/07/01 00:51:04;;;;;;;49.65;32.65;;;;;;;13.23;100.00;101333.25;5030973;28;20071;-59
2022/07/01 00:53:30;;;;;;;50.65;31.77;;;;;;;13.17;100.00;101317.63;5030905;28;20113;-60
2022/07/01 00:55:56;;;;;;;49.80;32.50;;;;;;;13.18;100.00;101324.63;5032407;28;20041;-60
2022/07/01 00:58:21;;;;;;;48.13;30.42;;;;;;;13.23;100.00;101323.56;5014409;28;20037;-61
2022/07/01 01:00:46;;;;;;;43.40;30.30;;;;;;;13.17;100.00;101301.75;5032895;28;20045;-60
2022/07/01 01:03:12;;;;;;;41.92;29.20;;;;;;;13.17;100.00;101299.13;5031280;28;20496;-61
2022/07/01 01:05:38;;;;;;;44.45;29.95;;;;;;;13.26;100.00;101327.88;5031956;28;20392;-60
2022/07/01 01:08:04;;;;;;;43.65;28.33;;;;;;;12.95;100.00;101262.00;5031432;28;20044;-60
2022/07/01 01:10:30;;;;;;;47.33;29.63;;;;;;;12.88;100.00;101253.41;5032561;28;20030;-60
2022/07/01 01:12:57;;;;;;;49.03;28.70;;;;;;;12.95;100.00;101267.28;5032330;28;20103;-61
2022/07/01 01:15:22;;;;;;;44.00;29.38;;;;;;;13.12;100.00;101306.34;5032347;28;20124;-60
2022/07/01 01:17:48;;;;;;;41.00;27.88;;;;;;;13.11;100.00;101301.97;5032429;28;20128;-60
2022/07/01 01:20:17;;;;;;;41.88;27.60;;;;;;;12.87;100.00;101274.63;5032287;28;20564;-60
2022/07/01 01:22:47;;;;;;;39.20;25.23;;;;;;;13.03;100.00;101317.22;5032632;28;20080;-60
2022/07/01 01:25:12;;;;;;;44.85;28.17;;;;;;;12.99;100.00;101317.31;5032067;28;20081;-60
2022/07/01 01:27:37;;;;;;;45.47;29.67;;;;;;;-142.64;100.00;58178.75;5032231;28;20080;-60
2022/07/01 01:30:05;;;;;;;45.25;29.42;;;;;;;22.55;100.00;58178.75;5032234;28;20112;-60
2022/07/01 01:32:30;;;;;;;41.80;27.70;;;;;;;22.55;100.00;58178.75;5031011;28;20108;-60
2022/07/01 01:34:56;;;;;;;45.03;29.08;;;;;;;-142.64;100.00;58178.75;5032430;28;20433;-60
2022/07/01 01:37:21;;;;;;;41.67;28.10;;;;;;;-142.64;100.00;58178.75;5032362;28;20025;-61
2022/07/01 01:39:46;;;;;;;45.05;29.13;;;;;;;-142.64;100.00;58178.75;5032415;28;20132;-60
2022/07/01 01:42:12;;;;;;;47.55;28.95;;;;;;;22.55;100.00;58178.75;5032293;28;20465;-60
2022/07/01 01:44:37;;;;;;;49.53;29.33;;;;;;;-142.64;100.00;58178.75;5032265;28;20111;-62
2022/07/01 01:47:02;;;;;;;41.92;25.80;;;;;;;-142.64;100.00;58178.75;5031952;28;20029;-61
2022/07/01 01:49:28;;;;;;;44.13;27.25;;;;;;;-142.64;100.00;58178.75;5031991;28;20029;-60
2022/07/01 01:51:54;;;;;;;41.85;26.25;;;;;;;-142.64;100.00;58178.75;5032180;28;20048;-61
2022/07/01 01:54:19;;;;;;;41.33;24.20;;;;;;;-142.64;100.00;58178.75;5032236;28;20060;-61
2022/07/01 01:56:44;;;;;;;39.70;24.17;;;;;;;-142.64;100.00;58178.75;5032056;28;20485;-60
2022/07/01 01:59:12;;;;;;;38.67;23.75;;;;;;;-142.64;100.00;58178.75;5032046;28;20033;-60
2022/07/01 02:01:37;;;;;;;35.38;20.70;;;;;;;-142.64;100.00;58178.75;4998450;28;20034;-61
2022/07/01 02:04:03;;;;;;;37.13;22.27;;;;;;;-142.64;100.00;58178.75;5031750;28;20125;-61
2022/07/01 02:06:28;;;;;;;39.63;19.88;;;;;;;-142.64;100.00;58178.75;5032170;28;20079;-62
2022/07/01 02:08:54;;;;;;;28.13;18.17;;;;;;;-142.64;100.00;58178.75;5031834;28;20116;-61
2022/07/01 02:11:19;;;;;;;28.92;18.83;;;;;;;-142.64;100.00;58178.75;5031845;28;20502;-60
2022/07/01 02:13:44;;;;;;;26.83;17.63;;;;;;;-142.64;100.00;58178.75;5032165;28;20100;-60
2022/07/01 02:16:10;;;;;;;25.83;17.05;;;;;;;-142.64;100.00;58178.75;5031141;28;20061;-59
2022/07/01 02:18:35;;;;;;;26.13;15.88;;;;;;;-142.64;100.00;58178.75;5035544;28;20107;-59
2022/07/01 02:21:00;;;;;;;27.13;16.90;;;;;;;-142.64;100.00;58178.75;5034392;28;20041;-60
2022/07/01 02:23:26;;;;;;;21.90;15.02;;;;;;;-142.64;100.00;58178.75;5035517;28;20063;-59
2022/07/01 02:25:52;;;;;;;22.88;14.85;;;;;;;-142.64;100.00;58178.75;5035547;28;20034;-60
2022/07/01 02:28:17;;;;;;;22.98;14.90;;;;;;;-142.64;100.00;58178.75;5034200;28;20045;-60
2022/07/01 02:30:43;;;;;;;20.73;14.85;;;;;;;-142.64;100.00;58178.75;5035487;28;20052;-61
2022/07/01 02:33:09;;;;;;;20.52;13.48;;;;;;;-142.64;100.00;58178.75;5035164;28;20026;-60
2022/07/01 02:35:36;;;;;;;22.48;15.10;;;;;;;-142.64;100.00;58178.75;5034223;28;20407;-60
2022/07/01 02:38:02;;;;;;;20.60;14.63;;;;;;;-142.64;100.00;58178.75;5035369;28;20532;-60
2022/07/01 02:40:28;;;;;;;19.17;13.35;;;;;;;-142.64;100.00;58178.75;5016840;28;20033;-60
2022/07/01 02:42:53;;;;;;;19.45;13.82;;;;;;;-142.64;100.00;58178.75;5035148;28;20168;-60
2022/07/01 02:45:18;;;;;;;22.50;13.43;;;;;;;-142.64;100.00;58178.75;5033893;28;20037;-60
2022/07/01 02:47:46;;;;;;;20.73;13.32;;;;;;;-142.64;100.00;58178.75;5034950;28;20041;-59
2022/07/01 02:50:14;;;;;;;19.50;13.27;;;;;;;-142.64;100.00;58178.75;5034977;28;20495;-61
2022/07/01 02:52:40;;;;;;;18.30;11.68;;;;;;;-142.64;100.00;58178.75;5035068;28;20041;-60
2022/07/01 02:55:07;;;;;;;17.95;12.32;;;;;;;;;;5033789;28;20504;-60
2022/07/01 02:57:33;;;;;;;17.35;11.10;;;;;;;12.76;nan;101304.03;5034806;28;20038;-61
2022/07/01 02:59:58;;;;;;;16.00;9.85;;;;;;;13.09;nan;101362.84;5034695;28;20040;-62
2022/07/01 03:02:24;;;;;;;15.18;11.32;;;;;;;12.69;nan;101305.16;5033518;28;20037;-61
2022/07/01 03:04:50;;;;;;;17.70;10.57;;;;;;;12.74;nan;101302.38;5033749;28;20029;-61
2022/07/01 03:07:16;;;;;;;17.20;10.50;;;;;;;12.78;nan;101315.41;5033264;28;20088;-61
2022/07/01 03:09:43;;;;;;;18.92;11.25;;;;;;;13.10;nan;101374.28;5033484;28;20463;-61
2022/07/01 03:12:24;;;;;;;14.63;10.73;;;;;;;13.07;nan;101356.72;5033560;28;20073;-62
2022/07/01 03:15:05;;;;;;;17.85;10.93;;;;;;;13.08;nan;101381.38;5033482;28;20056;-61
2022/07/01 03:17:31;;;;;;;18.07;10.80;;;;;;;12.96;nan;101362.34;5034542;28;20045;-61
2022/07/01 03:19:57;;;;;;;13.43;10.70;;;;;;;12.95;nan;101351.84;5033476;28;20037;-61
2022/07/01 03:22:26;;;;;;;15.60;10.27;;;;;;;12.58;nan;101288.78;5034496;28;20045;-62
2022/07/01 03:24:52;;;;;;;15.98;10.82;;;;;;;12.91;nan;101351.06;5033123;28;20052;-62
2022/07/01 03:27:18;;;;;;;16.75;10.45;;;;;;;12.98;nan;101357.88;5032734;28;20463;-61
2022/07/01 03:29:44;;;;;;;19.23;11.18;;;;;;;12.92;nan;101347.53;5034222;28;20388;-61
2022/07/01 03:32:10;;;;;;;16.35;10.40;;;;;;;12.88;nan;101350.31;5034344;28;20037;-61
2022/07/01 03:34:37;;;;;;;16.80;11.63;;;;;;;12.73;nan;101322.63;5016620;28;20038;-62
2022/07/01 03:37:03;;;;;;;19.77;12.43;;;;;;;12.93;nan;101359.81;5034133;28;20029;-60
2022/07/01 03:39:28;;;;;;;22.27;11.85;;;;;;;12.94;nan;101368.59;5034108;28;20034;-60
2022/07/01 03:41:54;;;;;;;23.40;12.02;;;;;;;12.95;nan;101375.63;5032821;28;20033;-61
2022/07/01 03:44:19;;;;;;;17.13;11.38;;;;;;;12.53;nan;101313.63;5034547;28;20045;-60
2022/07/01 03:50:06;;;;;;;22.20;12.48;;;;;;;12.93;nan;101386.22;5034065;28;20130;-61
2022/07/01 03:52:32;;;;;;;17.70;12.73;;;;;;;12.90;nan;101373.13;5032535;28;20041;-59
2022/07/01 03:54:57;;;;;;;16.90;12.00;;;;;;;12.70;nan;101346.50;5032695;28;20032;-60
2022/07/01 03:57:22;;;;;;;15.93;12.13;;;;;;;12.97;nan;101389.63;5031960;28;20048;-61
2022/07/01 03:59:48;;;;;;;22.77;12.93;;;;;;;12.96;nan;101391.41;5033166;28;20485;-61
2022/07/01 04:02:13;;;;;;;16.55;12.43;;;;;;;12.94;nan;101380.03;5033562;28;20033;-61
2022/07/01 04:04:38;;;;;;;18.45;12.43;;;;;;;13.03;nan;101389.44;5033719;28;20359;-60
2022/07/01 04:07:06;;;;;;;22.52;12.43;;;;;;;12.92;nan;101365.16;5033821;28;20037;-60
2022/07/01 04:09:31;;;;;;;18.20;11.50;;;;;;;13.13;nan;101398.81;5033564;28;20392;-60
2022/07/01 04:11:57;;;;;;;17.33;11.73;;;;;;;13.17;nan;101402.19;5033616;28;20040;-60
2022/07/01 04:14:24;;;;;;;18.58;12.05;;;;;;;13.14;nan;101394.38;5033295;28;20526;-62
2022/07/01 04:16:49;;;;;;;23.52;12.10;;;;;;;12.81;nan;101340.88;5032127;28;20033;-61
2022/07/01 04:19:15;;;;;;;16.23;11.80;;;;;;;13.07;nan;101400.78;5033157;28;20426;-61
2022/07/01 04:24:24;;;;;;;20.30;10.77;;;;;;;12.81;nan;101343.53;5033276;28;20060;-61
2022/07/01 04:26:50;;;;;;;14.43;10.80;;;;;;;13.16;nan;101401.38;5031765;28;20116;-60
2022/07/01 04:29:15;;;;;;;20.08;12.05;;;;;;;13.19;nan;101395.09;5033027;28;20044;-62
2022/07/01 04:31:41;;;;;;;16.35;11.88;;;;;;;13.15;nan;101388.19;5033006;28;20496;-60
2022/07/01 04:34:11;;;;;;;21.48;12.25;;;;;;;13.26;nan;101417.75;5015462;28;20119;-61
2022/07/01 04:36:36;;;;;;;17.20;12.90;;;;;;;13.29;nan;101417.66;5033071;28;20029;-61
2022/07/01 04:39:02;;;;;;;17.88;12.20;;;;;;;13.31;nan;101423.78;5032500;28;20026;-61
2022/07/01 04:44:12;;;;;;;20.75;12.93;;;;;;;13.15;nan;101375.84;5033045;28;20416;-61
2022/07/01 04:46:38;;;;;;;15.65;11.43;;;;;;;13.49;nan;101426.63;5032545;28;20037;-61
2022/07/01 04:49:03;;;;;;;18.30;11.27;;;;;;;13.37;nan;101399.72;5031775;28;20080;-62
2022/07/01 04:51:28;;;;;;;15.82;11.52;;;;;;;13.10;nan;101342.56;5032872;28;20033;-61
2022/07/01 04:53:54;;;;;;;15.95;11.43;;;;;;;13.46;nan;101389.69;5031495;28;20038;-61
2022/07/01 04:56:20;;;;;;;19.45;10.82;;;;;;;13.66;nan;101417.25;5032516;28;20052;-62
2022/07/01 04:58:45;;;;;;;12.98;10.32;;;;;;;13.35;nan;101359.28;5032660;28;20033;-61
2022/07/01 05:01:14;;;;;;;13.23;9.75;;;;;;;13.69;nan;101422.44;5032521;28;20040;-62
2022/07/01 05:03:39;;;;;;;18.95;10.10;;;;;;;13.71;nan;101434.69;5031397;28;20037;-60
2022/07/01 05:06:05;;;;;;;15.45;9.82;;;;;;;13.41;nan;101381.09;5032523;28;20118;-61
2022/07/01 05:08:30;;;;;;;14.52;9.85;;;;;;;13.79;nan;101443.19;5032520;28;20045;-60
2022/07/01 05:10:55;;;;;;;16.73;9.98;;;;;;;13.49;nan;101383.44;5032438;28;20061;-62
2022/07/01 05:13:21;;;;;;;13.35;9.52;;;;;;;13.91;nan;101441.88;5031065;28;20040;-60
2022/07/01 05:15:46;;;;;;;13.73;9.80;;;;;;;13.85;nan;101420.94;5032315;28;20038;-60
2022/07/01 05:23:39;;;;;;;18.73;9.57;;;;;;;13.82;nan;101374.28;5032168;28;20086;-60
2022/07/01 05:26:04;;;;;;;16.17;9.15;;;;;;;14.35;nan;101434.97;5032367;28;20505;-61
2022/07/01 05:28:30;;;;;;;13.25;8.90;;;;;;;14.50;nan;101443.19;5032536;28;20043;-60
2022/07/01 05:30:55;;;;;;;14.57;8.02;;;;;;;14.39;nan;101395.03;5032408;28;20036;-60
2022/07/01 05:33:21;;;;;;;11.55;7.47;;;;;;;14.84;nan;101439.19;5031072;28;20029;-60
2022/07/01 05:35:47;;;;;;;12.52;6.95;;;;;;;14.88;nan;101417.81;5031055;28;20041;-59
2022/07/01 05:38:12;;;;;;;11.43;7.05;;;;;;;15.02;nan;101434.00;5031243;28;20065;-59
2022/07/01 05:40:38;;;;;;;13.30;6.32;;;;;;;14.79;nan;101390.81;5032582;28;20463;-59
2022/07/01 05:43:03;;;;;;;12.43;6.72;;;;;;;15.16;nan;101436.06;5032383;28;20044;-60
2022/07/01 05:45:28;;;;;;;13.43;6.57;;;;;;;15.25;nan;101438.34;5032638;28;20526;-60
2022/07/01 05:47:53;;;;;;;10.77;5.85;;;;;;;15.34;nan;101450.34;5032378;28;20129;-61
2022/07/01 05:50:19;;;;;;;12.80;6.35;;;;;;;15.52;nan;101436.34;5032912;28;20060;-60
2022/07/01 05:52:45;;;;;;;11.73;5.95;;;;;;;15.53;nan;101420.34;5034725;28;20439;-60
2022/07/01 05:55:11;;;;;;;9.50;5.55;;;;;;;15.79;nan;101453.69;5035957;28;20041;-60
2022/07/01 05:57:36;;;;;;;7.40;4.53;;;;;;;15.80;nan;101446.59;5035930;28;20060;-60
2022/07/01 06:00:03;;;;;;;8.05;4.72;;;;;;;15.71;nan;101459.34;5036148;28;20397;-62
2022/07/01 06:02:29;;;;;;;13.02;5.07;;;;;;;15.68;nan;101458.63;5034653;28;20128;-60
2022/07/01 06:04:54;;;;;;;11.30;5.25;;;;;;;15.35;nan;101407.88;5036295;28;20137;-60
2022/07/01 06:07:19;;;;;;;14.63;4.45;;;;;;;15.51;nan;101434.63;5035786;28;20470;-61
2022/07/01 06:09:45;;;;;;;9.82;5.18;;;;;;;15.17;nan;101392.72;5035961;28;20049;-59
2022/07/01 06:12:10;;;;;;;15.15;5.10;;;;;;;15.22;nan;101385.44;5035966;28;20076;-63
2022/07/01 06:14:37;;;;;;;14.45;5.93;;;;;;;15.40;nan;101424.44;5035903;28;20127;-60
2022/07/01 06:17:03;;;;;;;13.10;5.10;;;;;;;15.39;nan;101425.34;5035802;28;20381;-60
2022/07/01 06:19:28;;;;;;;14.70;6.20;;;;;;;15.38;nan;101447.50;5035624;28;20033;-59
2022/07/01 06:21:54;;;;;;;11.75;5.32;;;;;;;15.36;nan;101444.06;5035604;28;20400;-60
2022/07/01 06:24:19;;;;;;;12.02;5.28;;;;;;;15.36;nan;101438.75;5035443;28;20085;-60
2022/07/01 06:26:46;;;;;;;16.08;6.30;;;;;;;15.23;nan;101401.25;5035815;28;20025;-63
2022/07/01 06:29:13;;;;;;;8.15;5.55;;;;;;;15.71;nan;101467.31;5035459;28;20040;-60
2022/07/01 06:31:38;;;;;;;12.10;5.45;;;;;;;15.87;nan;101462.22;5035356;28;20064;-60
2022/07/01 06:34:03;;;;;;;10.88;5.25;;;;;;;15.79;nan;101416.53;5035331;28;20038;-60
2022/07/01 06:36:29;;;;;;;14.23;5.75;;;;;;;15.83;nan;101412.81;5034063;28;20374;-59
2022/07/01 06:38:54;;;;;;;9.15;5.43;;;;;;;16.22;nan;101457.97;5035110;28;20069;-60
2022/07/01 06:41:28;;;;;;;15.50;5.75;;;;;;;16.29;nan;101462.91;5035336;28;20120;-60
2022/07/01 06:43:54;;;;;;;9.15;5.50;;;;;;;16.43;nan;101454.31;5034096;28;20104;-60
2022/07/01 06:46:20;;;;;;;11.80;6.00;;;;;;;16.47;nan;101431.09;5033864;28;20041;-59
2022/07/01 06:48:45;;;;;;;10.43;4.68;;;;;;;16.79;nan;101460.56;5035074;28;20029;-60
2022/07/01 06:51:11;;;;;;;9.98;4.20;;;;;;;17.13;nan;101466.91;5033868;28;20045;-60
2022/07/01 06:53:36;;;;;;;6.88;4.15;;;;;;;17.49;nan;101464.19;5034864;28;20428;-59
2022/07/01 06:56:02;;;;;;;9.43;3.67;;;;;;;17.89;nan;101467.38;5034856;28;20095;-60
2022/07/01 06:58:28;;;;;;;12.93;3.72;;;;;;;17.86;nan;101480.03;5034642;28;20094;-60
2022/07/01 07:00:53;;;;;;;9.60;4.53;;;;;;;17.86;nan;101488.03;5034871;28;20037;-61
2022/07/01 07:03:18;;;;;;;10.05;4.05;;;;;;;17.79;nan;101492.78;5032135;28;20033;-59
2022/07/01 07:05:43;;;;;;;9.80;3.72;;;;;;;17.61;nan;101459.13;5032354;28;20038;-59
2022/07/01 07:08:09;;;;;;;9.63;3.50;;;;;;;17.61;nan;101445.81;5031714;28;20100;-60
2022/07/01 07:10:34;;;;;;;8.65;3.47;;;;;;;17.68;nan;101454.34;5033291;28;20060;-59
2022/07/01 07:12:59;;;;;;;8.95;3.78;;;;;;;17.87;nan;101493.25;5033520;28;20492;-59
2022/07/01 07:15:25;;;;;;;8.50;3.60;;;;;;;17.83;nan;101496.16;5033969;28;20465;-61
2022/07/01 07:17:50;;;;;;;10.52;3.70;;;;;;;17.62;nan;101503.44;5034464;28;20033;-58
2022/07/01 07:20:15;;;;;;;7.07;3.10;;;;;;;17.21;nan;101484.22;5034647;28;20045;-58
2022/07/01 07:22:40;;;;;;;7.97;3.00;;;;;;;17.24;nan;101499.16;5034344;28;20084;-60
2022/07/01 07:25:06;;;;;;;8.55;3.35;;;;;;;17.17;nan;101508.38;5034244;28;20057;-60
2022/07/01 07:27:32;;;;;;;8.63;2.95;;;;;;;16.77;nan;101441.19;5034296;28;20045;-59
2022/07/01 07:29:57;;;;;;;7.25;2.58;;;;;;;17.11;nan;101495.34;5033163;28;20140;-59
2022/07/01 07:32:22;;;;;;;4.50;2.75;;;;;;;17.20;nan;101509.09;5032952;28;20042;-59
2022/07/01 07:34:47;;;;;;;7.22;2.63;;;;;;;17.21;nan;101518.78;5031865;28;20056;-59
2022/07/01 07:37:13;;;;;;;5.55;2.47;;;;;;;16.87;nan;101462.84;5031290;28;20065;-59
2022/07/01 07:39:38;;;;;;;6.90;2.40;;;;;;;17.29;nan;101523.72;5031526;28;20029;-59
2022/07/01 07:42:05;;;;;;;3.92;2.10;;;;;;;17.37;nan;101522.41;5032344;28;20033;-59
2022/07/01 07:44:30;;;;;;;6.95;1.60;;;;;;;17.59;nan;101521.38;5032257;28;20037;-59
2022/07/01 07:46:59;;;;;;;6.95;1.52;;;;;;;18.05;nan;101531.38;5031383;28;20395;-59
2022/07/01 07:49:25;;;;;;;4.30;1.67;;;;;;;18.19;nan;101534.19;5031052;28;20040;-59
2022/07/01 07:51:51;;;;;;;5.05;1.80;;;;;;;18.63;nan;101552.28;5032122;28;20037;-59
2022/07/01 07:54:16;;;;;;;4.50;1.75;;;;;;;18.95;nan;101549.56;5032294;28;20444;-57
2022/07/01 07:56:41;;;;;;;5.00;1.92;;;;;;;19.13;nan;101553.00;5032108;28;20030;-58
2022/07/01 07:59:07;;;;;;;5.72;2.05;;;;;;;19.05;nan;101560.59;5032240;28;20041;-59
2022/07/01 08:01:32;;;;;;;7.63;2.25;;;;;;;18.59;nan;101527.63;5032139;28;20041;-60
2022/07/01 08:03:58;;;;;;;3.53;1.85;;;;;;;18.61;nan;101560.38;5032254;28;20380;-60
2022/07/01 08:06:23;;;;;;;6.80;1.48;;;;;;;18.54;nan;101556.31;5032199;28;20392;-58
2022/07/01 08:08:48;;;;;;;5.07;1.85;;;;;;;18.94;nan;101555.00;5032028;28;20029;-59
2022/07/01 08:11:14;;;;;;;7.32;2.10;;;;;;;19.45;nan;101562.75;5031910;28;20079;-59
2022/07/01 08:13:39;;;;;;;5.20;1.95;;;;;;;19.56;nan;101581.69;5029646;28;20037;-59
2022/07/01 08:16:05;;;;;;;6.82;1.48;;;;;;;19.77;nan;101570.69;5030892;28;20037;-60
2022/07/01 08:18:30;;;;;;;6.78;1.70;;;;;;;19.80;nan;101574.03;5030707;28;20044;-60
2022/07/01 08:20:56;;;;;;;7.20;1.55;;;;;;;19.44;nan;101520.13;5031087;28;20072;-58
2022/07/01 08:23:22;;;;;;;7.32;1.85;;;;;;;19.26;nan;101535.38;5029830;28;20436;-58
2022/07/01 08:25:49;;;;;;;5.00;1.25;;;;;;;19.51;nan;101572.22;5029724;28;20101;-59
2022/07/01 08:28:14;;;;;;;4.18;1.55;;;;;;;19.03;nan;101522.47;5031382;28;20034;-59
2022/07/01 08:30:40;;;;;;;3.88;1.20;;;;;;;19.06;nan;101559.63;5031832;28;20443;-59
2022/07/01 08:33:05;;;;;;;6.80;1.67;;;;;;;18.71;nan;101536.75;5031811;28;20041;-59
2022/07/01 08:35:30;;;;;;;3.78;1.10;;;;;;;18.82;nan;101585.91;5031689;28;20033;-60
2022/07/01 08:37:56;;;;;;;3.22;1.40;;;;;;;18.39;nan;101589.09;5032194;28;20112;-60
2022/07/01 08:40:29;;;;;;;2.92;1.27;;;;;;;17.79;nan;101540.72;5032602;28;20033;-57
2022/07/01 08:42:59;;;;;;;4.65;1.90;;;;;;;17.87;nan;101581.13;5032648;28;20080;-58
2022/07/01 08:45:31;;;;;;;4.90;1.25;;;;;;;17.32;nan;101532.44;5032220;28;20021;-59
2022/07/01 08:48:00;;;;;;;4.75;1.40;;;;;;;17.38;nan;101585.34;5032032;28;20033;-58
2022/07/01 08:50:46;;;;;;;6.13;1.45;;;;;;;17.38;nan;101588.00;5031245;28;20025;-59
2022/07/01 08:53:12;;;;;;;5.38;1.73;;;;;;;17.10;nan;101552.19;5030233;28;20481;-60
2022/07/01 08:58:24;;;;;;;4.22;1.63;;;;;;;17.23;nan;101607.38;5030600;28;20483;-60
2022/07/01 09:00:49;;;;;;;4.97;1.65;;;;;;;17.18;nan;101592.56;5031463;28;20042;-60
2022/07/01 09:03:15;;;;;;;6.65;1.48;;;;;;;17.29;nan;101603.56;5031693;28;20037;-60
2022/07/01 09:05:48;;;;;;;4.00;1.40;;;;;;;17.41;nan;101598.50;5031617;28;20037;-59
2022/07/01 09:08:13;;;;;;;6.15;1.50;;;;;;;17.27;nan;101563.72;5030639;28;20037;-59
2022/07/01 09:10:38;;;;;;;4.10;1.98;;;;;;;17.60;nan;101614.47;5031923;28;20033;-58
2022/07/01 09:13:07;;;;;;;3.58;1.10;;;;;;;17.84;nan;101615.91;5031790;28;20377;-60
2022/07/01 09:15:32;;;;;;;5.43;1.38;;;;;;;17.69;nan;101557.22;5030848;28;20029;-59
2022/07/01 09:18:13;;;;;;;4.05;1.70;;;;;;;17.98;nan;101617.88;5031993;28;20090;-59
2022/07/01 09:20:41;;;;;;;2.85;1.25;;;;;;;18.13;nan;101626.88;5032065;28;20029;-60
2022/07/01 09:23:11;;;;;;;7.88;1.77;;;;;;;17.89;nan;101565.09;5031843;28;20388;-59
2022/07/01 09:25:45;;;;;;;4.72;1.58;;;;;;;18.60;nan;101544.44;5029755;28;20092;-59
2022/07/01 09:28:15;;;;;;;2.15;0.93;;;;;;;20.25;nan;101633.72;5031533;28;20142;-59
2022/07/01 09:30:43;;;;;;;3.75;1.30;;;;;;;21.61;nan;101635.81;5031353;28;20033;-59
2022/07/01 09:33:12;;;;;;;4.13;1.42;;;;;;;22.76;nan;101665.53;5030212;28;20041;-57
2022/07/01 09:35:37;;;;;;;3.50;1.50;;;;;;;23.57;nan;101685.63;5029845;28;20068;-59
2022/07/01 09:38:05;;;;;;;2.15;0.70;;;;;;;24.07;nan;101687.25;5031769;28;20065;-60
2022/07/01 09:40:50;;;;;;;2.92;0.90;;;;;;;24.65;nan;101699.81;5030575;28;20037;-63
2022/07/01 09:43:21;;;;;;;3.42;1.00;;;;;;;24.67;nan;101675.47;5013947;28;20029;-60
2022/07/01 09:46:04;;;;;;;3.92;0.85;;;;;;;23.93;nan;101664.06;5030976;28;20037;-58
2022/07/01 09:48:32;;;;;;;1.55;0.60;;;;;;;23.57;nan;101712.50;5030738;28;20392;-60
2022/07/01 09:50:57;;;;;;;2.42;0.68;;;;;;;23.22;nan;101649.69;5031726;28;20035;-60
2022/07/01 09:53:22;;;;;;;3.95;0.98;;;;;;;23.29;nan;101681.34;5030617;28;20033;-60
2022/07/01 09:55:48;;;;;;;2.92;1.27;;;;;;;23.21;nan;101736.59;5031237;28;20052;-59
2022/07/01 09:58:14;;;;;;;3.28;1.30;;;;;;;23.22;nan;101722.22;5037748;28;20044;-60
2022/07/01 10:00:40;;;;;;;2.67;1.00;;;;;;;23.31;nan;101657.94;5051312;28;20037;-60
2022/07/01 10:03:06;;;;;;;2.22;0.70;;;;;;;23.82;nan;101708.84;5038236;28;20041;-60
2022/07/01 10:05:37;;;;;;;3.88;0.95;;;;;;;22.84;nan;101673.91;5030277;28;20044;-60
2022/07/01 10:08:25;;;;;;;6.80;1.63;;;;;;;22.16;nan;101721.50;5029278;28;20586;-59
2022/07/01 10:11:20;;;;;;;3.53;0.98;;;;;;;21.21;nan;101707.19;5031142;28;20086;-60
2022/07/01 10:13:46;;;;;;;4.82;1.75;;;;;;;20.27;nan;101648.75;5019769;28;20511;-59
2022/07/01 10:16:11;;;;;;;6.95;1.63;;;;;;;20.62;nan;101702.78;5027850;28;20069;-59
2022/07/01 10:18:37;;;;;;;3.15;1.52;;;;;;;21.13;nan;101690.75;5034043;28;20033;-60
2022/07/01 10:21:04;;;;;;;6.50;1.23;;;;;;;22.35;nan;101697.88;5030138;28;20055;-59
2022/07/01 10:23:43;;;;;;;4.05;1.20;;;;;;;23.46;nan;101710.59;5029688;28;20148;-59
2022/07/01 10:26:10;;;;;;;2.83;1.27;;;;;;;23.15;nan;101662.69;5028982;28;20041;-60
2022/07/01 10:28:43;;;;;;;4.55;1.55;;;;;;;22.72;nan;101725.75;5029793;28;20038;-60
2022/07/01 10:31:16;;;;;;;6.82;2.13;;;;;;;22.31;nan;101691.00;5030533;28;20083;-59
2022/07/01 10:33:53;;;;;;;5.03;1.42;;;;;;;22.34;nan;101715.78;5030686;28;20060;-60
2022/07/01 10:36:21;;;;;;;3.67;1.23;;;;;;;21.82;nan;101721.03;5031337;28;20029;-58
2022/07/01 10:39:03;;;;;;;2.88;1.63;;;;;;;21.12;nan;101707.75;5033155;28;20033;-59
2022/07/01 10:41:34;;;;;;;3.10;1.40;;;;;;;20.23;nan;101651.69;5034330;28;20029;-58
2022/07/01 10:44:04;;;;;;;7.32;2.10;;;;;;;19.54;nan;101634.31;5034845;28;20393;-59
2022/07/01 10:46:56;;;;;;;5.60;2.35;;;;;;;19.36;nan;101685.19;5033918;28;20037;-58
2022/07/01 10:49:37;;;;;;;6.22;1.63;;;;;;;19.03;nan;101687.91;5034812;28;20076;-59
2022/07/01 10:52:10;;;;;;;9.35;2.22;;;;;;;18.65;nan;101620.59;5034465;28;20116;-58
2022/07/01 10:54:36;;;;;;;4.65;1.50;;;;;;;19.37;nan;101685.13;5033718;28;20030;-62
2022/07/01 10:57:16;;;;;;;6.70;1.42;;;;;;;19.90;nan;101684.78;5034478;28;20108;-58
2022/07/01 10:59:53;;;;;;;3.30;1.48;;;;;;;19.94;nan;101693.47;5034316;28;20037;-58
2022/07/01 11:02:26;;;;;;;4.38;1.30;;;;;;;19.70;nan;101686.88;5033665;28;20025;-58
2022/07/01 11:04:59;;;;;;;10.38;2.05;;;;;;;19.38;nan;101708.16;5033730;28;20112;-59
2022/07/01 11:07:26;;;;;;;4.72;1.45;;;;;;;19.03;nan;101682.56;5052549;28;20028;-59
2022/07/01 11:09:52;;;;;;;6.15;1.85;;;;;;;19.05;nan;101705.56;5036321;28;20041;-60
2022/07/01 11:12:20;;;;;;;5.60;1.40;;;;;;;19.02;nan;101688.84;5037042;28;20037;-59
2022/07/01 11:14:45;;;;;;;6.03;1.40;;;;;;;19.06;nan;101698.38;5034413;28;20037;-59
2022/07/01 11:17:11;;;;;;;2.78;1.20;;;;;;;19.09;nan;101706.22;5033001;28;20099;-60
2022/07/01 11:19:36;;;;;;;2.17;1.30;;;;;;;18.64;nan;101650.88;5034302;28;20476;-61
2022/07/01 11:22:02;;;;;;;3.30;1.45;;;;;;;18.75;nan;101709.84;5034197;28;20078;-60
2022/07/01 11:24:28;;;;;;;8.27;1.70;;;;;;;18.19;nan;101650.56;5033761;28;20049;-60
2022/07/01 11:27:06;;;;;;;5.97;2.15;;;;;;;17.79;nan;101628.59;5034254;28;20084;-61
2022/07/01 11:29:32;;;;;;;6.15;2.28;;;;;;;17.87;nan;101702.78;5032898;28;20041;-60
2022/07/01 11:31:57;;;;;;;4.97;1.60;;;;;;;17.36;nan;101679.50;5016388;28;20037;-60
2022/07/01 11:34:23;;;;;;;5.20;1.90;;;;;;;17.18;nan;101677.69;5032867;28;20041;-61
2022/07/01 11:39:35;;;;;;;5.82;2.00;;;;;;;17.13;nan;101677.06;5033866;28;20095;-60
2022/07/01 11:42:04;;;;;;;6.70;1.85;;;;;;;17.18;nan;101678.56;5032144;28;20447;-60
2022/07/01 11:44:37;;;;;;;6.28;2.30;;;;;;;17.30;nan;101674.47;5052177;28;20037;-59